Time;durP1;ratioP1;P1;durP2;ratioP2;P2;SDS_P1;SDS_P2;PMS_P1;PMS_P2;Temp;Humidity;BMP_temperature;BMP_pressure;BME280_temperature;BME280_humidity;BME280_pressure;Samples;Min_cycle;Max_cycle;Signal;HPM_P1;HPM_P2
2021/11/29 00:00:33;;;;;;;5.45;4.05;;;;;;;-140.79;100.00;63287.88;5029869;28;20502;-53
2021/11/29 00:03:01;;;;;;;6.63;4.30;;;;;;;-140.79;100.00;63287.88;5029902;28;20034;-53
2021/11/29 00:05:27;;;;;;;5.78;4.05;;;;;;;-140.79;100.00;63287.88;5032134;28;20029;-56
2021/11/29 00:07:53;;;;;;;7.78;4.32;;;;;;;-140.79;100.00;63287.88;5033224;28;20021;-53
2021/11/29 00:10:18;;;;;;;5.82;3.90;;;;;;;-140.79;100.00;63287.88;5033134;28;20021;-54
2021/11/29 00:12:44;;;;;;;5.88;4.07;;;;;;;-140.79;100.00;63287.88;5033463;28;20029;-54
2021/11/29 00:15:10;;;;;;;7.10;4.47;;;;;;;-140.79;100.00;63287.88;5032962;28;20026;-53
2021/11/29 00:17:35;;;;;;;6.10;4.22;;;;;;;-140.79;100.00;63287.88;5033147;28;20458;-52
2021/11/29 00:20:01;;;;;;;6.20;3.95;;;;;;;-140.79;100.00;63287.88;5033206;28;20562;-53
2021/11/29 00:22:26;;;;;;;6.38;4.50;;;;;;;-140.79;100.00;63287.88;5033040;28;20140;-53
2021/11/29 00:24:51;;;;;;;5.63;3.92;;;;;;;-140.79;100.00;63287.88;5032929;28;20028;-54
2021/11/29 00:27:17;;;;;;;6.35;4.25;;;;;;;-140.79;100.00;63287.88;5032893;28;20164;-54
2021/11/29 00:29:44;;;;;;;5.90;4.63;;;;;;;-140.79;100.00;63287.88;5032857;28;20030;-55
2021/11/29 00:32:10;;;;;;;6.30;4.40;;;;;;;-140.79;100.00;63287.88;5032756;28;20025;-53
2021/11/29 00:34:36;;;;;;;7.28;4.60;;;;;;;-140.79;100.00;63287.88;5032742;28;20526;-53
2021/11/29 00:37:01;;;;;;;5.97;3.92;;;;;;;-140.79;100.00;63287.88;5032843;28;20026;-53
2021/11/29 00:39:27;;;;;;;5.70;4.07;;;;;;;-140.79;100.00;63287.88;5047896;28;20047;-54
2021/11/29 00:41:52;;;;;;;5.93;4.20;;;;;;;-140.79;100.00;63287.88;5032584;28;20490;-53
2021/11/29 00:44:18;;;;;;;6.40;4.35;;;;;;;-140.79;100.00;63287.88;5032704;28;20052;-53
2021/11/29 00:46:43;;;;;;;6.50;4.55;;;;;;;-140.79;100.00;63287.88;5032410;28;20025;-54
2021/11/29 00:49:09;;;;;;;6.65;4.50;;;;;;;-140.79;100.00;63287.88;5032604;28;20018;-56
2021/11/29 00:51:34;;;;;;;7.25;4.93;;;;;;;-140.79;100.00;63287.88;5032378;28;20044;-52
2021/11/29 00:54:00;;;;;;;6.75;4.50;;;;;;;-140.79;100.00;63287.88;5032571;28;20033;-52
2021/11/29 00:56:27;;;;;;;7.10;4.40;;;;;;;-140.79;100.00;63287.88;5047737;28;20025;-54
2021/11/29 00:58:52;;;;;;;6.53;4.57;;;;;;;-140.79;100.00;63287.88;5030937;28;20107;-54
2021/11/29 01:01:18;;;;;;;5.95;4.10;;;;;;;-140.79;100.00;63287.88;5032290;28;20408;-54
2021/11/29 01:03:43;;;;;;;6.32;4.50;;;;;;;-140.79;100.00;63287.88;5032213;28;20056;-53
2021/11/29 01:06:09;;;;;;;7.15;4.90;;;;;;;-140.79;100.00;63287.88;5030965;28;20040;-53
2021/11/29 01:08:34;;;;;;;5.90;4.22;;;;;;;-140.79;100.00;63287.88;5032124;28;20025;-53
2021/11/29 01:11:00;;;;;;;6.10;4.32;;;;;;;-140.79;100.00;63287.88;5047409;28;20044;-53
2021/11/29 01:13:26;;;;;;;7.53;4.82;;;;;;;-140.79;100.00;63287.88;5031955;28;20108;-55
2021/11/29 01:15:52;;;;;;;5.78;3.85;;;;;;;-140.79;100.00;63287.88;5030005;28;20105;-55
2021/11/29 01:18:17;;;;;;;7.68;5.03;;;;;;;-140.79;100.00;63287.88;5031704;28;20099;-54
2021/11/29 01:20:43;;;;;;;5.60;4.35;;;;;;;-140.79;100.00;63287.88;5031896;28;20032;-53
2021/11/29 01:23:10;;;;;;;6.30;4.28;;;;;;;-140.79;100.00;63287.88;5031884;28;20518;-54
2021/11/29 01:25:35;;;;;;;6.88;4.20;;;;;;;-140.79;100.00;63287.88;5031839;28;20032;-54
2021/11/29 01:28:00;;;;;;;5.32;4.30;;;;;;;-140.79;100.00;63287.88;5031941;28;20026;-54
2021/11/29 01:30:26;;;;;;;7.18;4.55;;;;;;;-140.79;100.00;63287.88;5030623;28;20104;-54
2021/11/29 01:32:51;;;;;;;6.15;4.50;;;;;;;-140.79;100.00;63287.88;5031617;28;20419;-55
2021/11/29 01:35:17;;;;;;;6.65;4.78;;;;;;;-140.79;100.00;63287.88;5031736;28;20371;-54
2021/11/29 01:37:42;;;;;;;6.70;4.40;;;;;;;-140.79;100.00;63287.88;5031535;28;20025;-55
2021/11/29 01:40:08;;;;;;;6.35;4.40;;;;;;;-140.79;100.00;63287.88;5031559;28;20025;-54
2021/11/29 01:42:34;;;;;;;6.70;4.68;;;;;;;-140.79;100.00;63287.88;5031428;28;20105;-53
2021/11/29 01:44:59;;;;;;;6.40;4.22;;;;;;;-140.79;100.00;63287.88;5031368;28;20428;-53
2021/11/29 01:47:25;;;;;;;7.57;4.90;;;;;;;-140.79;100.00;63287.88;5030182;28;20088;-53
2021/11/29 01:49:50;;;;;;;6.00;4.28;;;;;;;-140.79;100.00;63287.88;5031200;28;20404;-53
2021/11/29 01:52:16;;;;;;;6.82;4.75;;;;;;;-140.79;100.00;63287.88;5031327;28;20037;-54
2021/11/29 01:54:41;;;;;;;7.00;4.50;;;;;;;-140.79;100.00;63287.88;5030976;28;20026;-54
2021/11/29 01:57:07;;;;;;;6.18;4.60;;;;;;;-140.79;100.00;63287.88;5031049;28;20036;-55
2021/11/29 01:59:33;;;;;;;7.00;4.50;;;;;;;-140.79;100.00;63287.88;5030999;28;20061;-54
2021/11/29 02:01:58;;;;;;;5.65;4.50;;;;;;;-140.79;100.00;63287.88;5031162;28;20029;-55
2021/11/29 02:04:24;;;;;;;6.20;4.50;;;;;;;-140.79;100.00;63287.88;5030032;28;20028;-52
2021/11/29 02:06:49;;;;;;;6.18;4.53;;;;;;;-140.79;100.00;63287.88;5029829;28;20022;-53
2021/11/29 02:09:15;;;;;;;7.00;4.80;;;;;;;-140.79;100.00;63287.88;5030917;28;20079;-53
2021/11/29 02:11:40;;;;;;;5.90;4.50;;;;;;;-140.79;100.00;63287.88;5030912;28;20025;-52
2021/11/29 02:14:06;;;;;;;5.65;4.63;;;;;;;-140.79;100.00;63287.88;5030838;28;20026;-55
2021/11/29 02:16:32;;;;;;;6.93;4.70;;;;;;;-140.79;100.00;63287.88;5030863;28;20036;-53
2021/11/29 02:18:58;;;;;;;7.47;4.90;;;;;;;-140.79;100.00;63287.88;5030735;28;20499;-53
2021/11/29 02:21:30;;;;;;;6.05;4.30;;;;;;;-140.79;100.00;63287.88;5030861;28;20021;-53
2021/11/29 02:23:58;;;;;;;6.25;4.22;;;;;;;-140.79;100.00;63287.88;5030785;28;20569;-55
2021/11/29 02:26:26;;;;;;;6.38;4.68;;;;;;;-140.79;100.00;63287.88;5030860;28;20029;-52
2021/11/29 02:28:54;;;;;;;7.22;4.78;;;;;;;-140.79;100.00;63287.88;5030544;28;20571;-54
2021/11/29 02:31:21;;;;;;;6.35;4.55;;;;;;;-140.79;100.00;63287.88;5030676;28;20057;-54
2021/11/29 02:33:46;;;;;;;5.45;4.20;;;;;;;-140.79;100.00;63287.88;5031121;28;20045;-54
2021/11/29 02:36:12;;;;;;;6.93;4.53;;;;;;;-140.79;100.00;63287.88;5030687;28;20120;-53
2021/11/29 02:38:37;;;;;;;6.78;4.63;;;;;;;-140.79;100.00;63287.88;5030459;28;20040;-53
2021/11/29 02:41:03;;;;;;;8.45;4.82;;;;;;;-140.79;100.00;63287.88;5030497;28;20029;-52
2021/11/29 02:43:29;;;;;;;6.20;4.47;;;;;;;-140.79;100.00;63287.88;5030644;28;20025;-52
2021/11/29 02:45:54;;;;;;;6.18;4.30;;;;;;;-140.79;100.00;63287.88;5045920;28;20030;-54
2021/11/29 02:48:37;;;;;;;7.45;4.65;;;;;;;-140.79;100.00;63287.88;5030301;28;20033;-53
2021/11/29 02:51:03;;;;;;;6.97;4.88;;;;;;;-140.79;100.00;63287.88;5030481;28;20060;-53
2021/11/29 02:53:28;;;;;;;6.75;4.57;;;;;;;-140.79;100.00;63287.88;5030563;28;20025;-52
2021/11/29 02:55:55;;;;;;;6.57;4.30;;;;;;;-140.79;100.00;63287.88;5030427;28;20033;-53
2021/11/29 02:58:21;;;;;;;6.57;4.68;;;;;;;-140.79;100.00;63287.88;5030242;28;20057;-52
2021/11/29 03:00:46;;;;;;;6.20;4.55;;;;;;;-140.79;100.00;63287.88;5030287;28;20029;-53
2021/11/29 03:03:12;;;;;;;5.80;4.13;;;;;;;-140.79;100.00;63287.88;5030445;28;20079;-52
2021/11/29 03:05:37;;;;;;;5.57;4.15;;;;;;;-140.79;100.00;63287.88;5030390;28;20037;-52
2021/11/29 03:08:03;;;;;;;5.95;4.45;;;;;;;-140.79;100.00;63287.88;5030142;28;20018;-54
2021/11/29 03:10:29;;;;;;;5.85;4.00;;;;;;;-140.79;100.00;63287.88;5030122;28;20083;-53
2021/11/29 03:12:54;;;;;;;6.25;4.50;;;;;;;-140.79;100.00;63287.88;5030147;28;20159;-53
2021/11/29 03:15:20;;;;;;;6.45;4.25;;;;;;;-140.79;100.00;63287.88;5030252;28;20017;-53
2021/11/29 03:17:45;;;;;;;6.25;4.00;;;;;;;-140.79;100.00;63287.88;5030484;28;20124;-53
2021/11/29 03:20:11;;;;;;;6.57;4.30;;;;;;;-140.79;100.00;63287.88;5035040;28;20037;-52
2021/11/29 03:22:36;;;;;;;6.80;4.75;;;;;;;-140.79;100.00;63287.88;5034500;28;20034;-53
2021/11/29 03:25:03;;;;;;;5.82;4.25;;;;;;;-140.79;100.00;63287.88;5033251;28;20030;-53
2021/11/29 03:27:28;;;;;;;5.60;4.28;;;;;;;-140.79;100.00;63287.88;5029124;28;20113;-55
2021/11/29 03:29:54;;;;;;;7.00;4.57;;;;;;;-140.79;100.00;63287.88;5030433;28;20033;-53
2021/11/29 03:32:21;;;;;;;6.47;4.20;;;;;;;-140.79;100.00;63287.88;5045657;28;20030;-55
2021/11/29 03:34:46;;;;;;;6.88;4.68;;;;;;;-140.79;100.00;63287.88;5030428;28;20029;-53
2021/11/29 03:37:12;;;;;;;6.80;4.65;;;;;;;-140.79;100.00;63287.88;5030354;28;20039;-52
2021/11/29 03:39:37;;;;;;;5.93;4.40;;;;;;;-140.79;100.00;63287.88;5031261;28;20404;-53
2021/11/29 03:42:05;;;;;;;5.65;4.03;;;;;;;-140.79;100.00;63287.88;5034447;28;20140;-53
2021/11/29 03:44:31;;;;;;;6.50;4.68;;;;;;;-140.79;100.00;63287.88;5033936;28;20021;-53
2021/11/29 03:46:56;;;;;;;5.60;4.25;;;;;;;-140.79;100.00;63287.88;5033799;28;20056;-53
2021/11/29 03:49:22;;;;;;;6.18;4.13;;;;;;;-140.79;100.00;63287.88;5034310;28;20476;-53
2021/11/29 03:51:48;;;;;;;6.93;4.28;;;;;;;-140.79;100.00;63287.88;5038498;28;20111;-53
2021/11/29 03:54:14;;;;;;;6.75;4.13;;;;;;;-140.79;100.00;63287.88;5038249;28;20032;-54
2021/11/29 03:56:39;;;;;;;5.60;3.90;;;;;;;-140.79;100.00;63287.88;5038114;28;20033;-54
2021/11/29 03:59:05;;;;;;;6.25;4.40;;;;;;;-140.79;100.00;63287.88;5037232;28;20053;-54
2021/11/29 04:01:30;;;;;;;6.50;4.47;;;;;;;-140.79;100.00;63287.88;5048931;28;20513;-54
2021/11/29 04:03:56;;;;;;;5.90;4.25;;;;;;;-140.79;100.00;63287.88;5033695;28;20490;-53
2021/11/29 04:06:21;;;;;;;7.30;4.38;;;;;;;-140.79;100.00;63287.88;5033760;28;20032;-53
2021/11/29 04:08:47;;;;;;;6.30;4.50;;;;;;;-140.79;100.00;63287.88;5033725;28;20013;-54
2021/11/29 04:11:12;;;;;;;6.10;4.03;;;;;;;-140.79;100.00;63287.88;5033530;28;20029;-55
2021/11/29 04:13:38;;;;;;;5.32;3.92;;;;;;;-140.79;100.00;63287.88;5049112;28;20542;-54
2021/11/29 04:16:03;;;;;;;6.95;4.57;;;;;;;-140.79;100.00;63287.88;5034929;28;20025;-54
2021/11/29 04:18:29;;;;;;;6.13;4.05;;;;;;;-140.79;100.00;63287.88;5037760;28;20025;-54
2021/11/29 04:20:56;;;;;;;5.60;4.22;;;;;;;-140.79;100.00;63287.88;5033935;28;20021;-53
2021/11/29 04:23:22;;;;;;;5.13;4.32;;;;;;;-140.79;100.00;63287.88;5033356;28;20018;-54
2021/11/29 04:25:52;;;;;;;6.85;4.45;;;;;;;-140.79;100.00;63287.88;5033300;28;20561;-52
2021/11/29 04:28:18;;;;;;;4.95;4.00;;;;;;;-140.79;100.00;63287.88;5033091;28;20034;-54
2021/11/29 04:30:44;;;;;;;5.60;3.90;;;;;;;-140.79;100.00;63287.88;5032856;28;20032;-54
2021/11/29 04:33:10;;;;;;;5.78;3.85;;;;;;;-140.79;100.00;63287.88;5033101;28;20017;-53
2021/11/29 04:35:35;;;;;;;5.30;4.00;;;;;;;-140.79;100.00;63287.88;5048494;28;20022;-54
2021/11/29 04:38:00;;;;;;;4.97;3.72;;;;;;;-140.79;100.00;63287.88;5032964;28;20025;-53
2021/11/29 04:40:26;;;;;;;5.45;3.85;;;;;;;-140.79;100.00;63287.88;5031497;28;20065;-53
2021/11/29 04:42:51;;;;;;;5.97;3.50;;;;;;;-140.79;100.00;63287.88;5032866;28;20061;-53
2021/11/29 04:45:17;;;;;;;5.05;3.60;;;;;;;-140.79;100.00;63287.88;5032845;28;20033;-53
2021/11/29 04:47:42;;;;;;;5.35;3.90;;;;;;;-140.79;100.00;63287.88;5032458;28;20091;-54
2021/11/29 04:50:08;;;;;;;4.32;3.35;;;;;;;-140.79;100.00;63287.88;5032765;28;20040;-53
2021/11/29 04:52:34;;;;;;;5.45;3.70;;;;;;;-140.79;100.00;63287.88;5032758;28;20033;-53
2021/11/29 04:54:59;;;;;;;5.35;3.50;;;;;;;-140.79;100.00;63287.88;5032764;28;20112;-55
2021/11/29 04:57:25;;;;;;;4.93;3.30;;;;;;;-140.79;100.00;63287.88;5032146;28;20037;-54
2021/11/29 04:59:51;;;;;;;6.00;3.80;;;;;;;-140.79;100.00;63287.88;5031265;28;20515;-53
2021/11/29 05:02:16;;;;;;;5.45;3.65;;;;;;;-140.79;100.00;63287.88;5031556;28;20037;-53
2021/11/29 05:04:46;;;;;;;5.00;3.40;;;;;;;-140.79;100.00;63287.88;5046533;28;20432;-53
2021/11/29 05:07:11;;;;;;;3.88;2.92;;;;;;;-140.79;100.00;63287.88;5031243;28;20615;-54
2021/11/29 05:09:38;;;;;;;5.40;3.60;;;;;;;-140.79;100.00;63287.88;5029956;28;20109;-54
2021/11/29 05:12:04;;;;;;;3.58;2.95;;;;;;;-140.79;100.00;63287.88;5031433;28;20181;-54
2021/11/29 05:14:29;;;;;;;4.53;3.42;;;;;;;-140.79;100.00;63287.88;5030901;28;20147;-54
2021/11/29 05:16:55;;;;;;;5.05;3.30;;;;;;;-140.79;100.00;63287.88;5030960;28;20013;-53
2021/11/29 05:19:20;;;;;;;4.30;3.10;;;;;;;-140.79;100.00;63287.88;5031164;28;20030;-54
2021/11/29 05:21:46;;;;;;;4.30;3.03;;;;;;;-140.79;100.00;63287.88;5031190;28;20017;-54
2021/11/29 05:24:13;;;;;;;4.70;3.20;;;;;;;-140.79;100.00;63287.88;5046566;28;20025;-54
2021/11/29 05:26:39;;;;;;;4.28;3.13;;;;;;;-140.79;100.00;63287.88;5031067;28;20029;-53
2021/11/29 05:29:04;;;;;;;5.75;3.00;;;;;;;-140.79;100.00;63287.88;5031896;28;20025;-53
2021/11/29 05:31:30;;;;;;;4.50;3.00;;;;;;;-140.79;100.00;63287.88;5031072;28;20021;-53
2021/11/29 05:33:55;;;;;;;4.63;3.60;;;;;;;-140.79;100.00;63287.88;5032539;28;20021;-53
2021/11/29 05:36:21;;;;;;;4.75;3.03;;;;;;;-140.79;100.00;63287.88;5034361;28;20030;-54
2021/11/29 05:38:46;;;;;;;4.32;3.17;;;;;;;-140.79;100.00;63287.88;5032405;28;20076;-54
2021/11/29 05:41:12;;;;;;;4.13;3.20;;;;;;;-140.79;100.00;63287.88;5031482;28;20018;-54
2021/11/29 05:43:37;;;;;;;4.70;3.05;;;;;;;-140.79;100.00;63287.88;5031670;28;20026;-52
2021/11/29 05:46:03;;;;;;;3.80;2.65;;;;;;;-140.79;100.00;63287.88;5031797;28;20029;-53
2021/11/29 05:48:31;;;;;;;4.45;2.90;;;;;;;-140.79;100.00;63287.88;5034636;28;20029;-54
2021/11/29 05:51:57;;;;;;;3.55;2.88;;;;;;;24.61;38.87;92751.09;5048391;27;20223;-57
2021/11/29 05:54:23;;;;;;;4.18;3.28;;;;;;;24.68;38.62;92722.91;5080722;28;20040;-56
2021/11/29 05:56:48;;;;;;;4.05;3.08;;;;;;;24.77;38.26;92731.16;5034346;28;20056;-55
2021/11/29 05:59:14;;;;;;;4.47;3.25;;;;;;;24.83;38.18;92756.88;5108732;28;20036;-56
2021/11/29 06:01:39;;;;;;;4.50;3.30;;;;;;;24.87;38.13;92746.25;5081122;28;20033;-53
2021/11/29 06:04:05;;;;;;;4.55;3.22;;;;;;;24.96;38.14;92753.72;5081143;28;20032;-53
2021/11/29 06:06:30;;;;;;;3.95;2.67;;;;;;;25.03;38.36;92763.81;5080998;28;20568;-54
2021/11/29 06:08:56;;;;;;;3.78;2.90;;;;;;;25.05;38.26;92799.47;5081282;28;20024;-54
2021/11/29 06:11:21;;;;;;;4.13;2.90;;;;;;;25.09;38.57;92794.28;5071986;28;20031;-55
2021/11/29 06:13:47;;;;;;;4.15;3.08;;;;;;;25.08;38.47;92781.94;5080770;28;20057;-56
2021/11/29 06:16:12;;;;;;;4.32;3.20;;;;;;;25.12;37.91;92782.22;5079522;28;20036;-54
2021/11/29 06:18:38;;;;;;;4.25;3.20;;;;;;;25.20;38.08;92771.16;5080964;28;20488;-55
2021/11/29 06:21:03;;;;;;;4.47;3.00;;;;;;;25.31;38.01;92793.16;5079481;28;20082;-55
2021/11/29 06:23:29;;;;;;;3.33;2.50;;;;;;;25.39;37.87;92788.28;5081160;28;20126;-53
2021/11/29 06:25:54;;;;;;;4.50;2.85;;;;;;;25.40;37.64;92778.78;5081302;28;20024;-55
2021/11/29 06:28:20;;;;;;;3.50;2.50;;;;;;;25.34;37.64;92781.78;5080035;28;20016;-54
2021/11/29 06:30:45;;;;;;;3.95;2.72;;;;;;;25.33;37.59;92790.56;5079641;28;20115;-54
2021/11/29 06:33:11;;;;;;;6.65;2.72;;;;;;;25.49;37.73;92805.38;5076212;28;20029;-51
2021/11/29 06:35:36;;;;;;;4.28;2.60;;;;;;;25.59;37.30;92825.22;5078886;28;20466;-52
2021/11/29 06:38:04;;;;;;;3.70;2.70;;;;;;;25.65;37.19;92820.94;5080046;28;20032;-54
2021/11/29 06:40:29;;;;;;;3.88;2.70;;;;;;;25.69;37.23;92809.56;5079527;28;20040;-53
2021/11/29 06:42:55;;;;;;;3.33;2.33;;;;;;;25.78;37.08;92811.56;5080230;28;20043;-55
2021/11/29 06:45:21;;;;;;;3.78;2.55;;;;;;;25.68;37.23;92824.53;5079892;28;20054;-52
2021/11/29 06:47:47;;;;;;;3.00;2.30;;;;;;;25.71;37.04;92834.31;5078582;28;20527;-54
2021/11/29 06:50:12;;;;;;;4.22;2.50;;;;;;;25.73;37.12;92853.63;5079136;28;20094;-52
2021/11/29 06:52:38;;;;;;;3.58;2.50;;;;;;;25.74;37.26;92849.56;5079806;28;20036;-53
2021/11/29 06:55:04;;;;;;;18.73;3.00;;;;;;;25.71;37.33;92845.25;5079860;28;20532;-52
2021/11/29 06:57:29;;;;;;;3.53;2.40;;;;;;;25.77;37.24;92853.88;5079808;28;20082;-52
2021/11/29 06:59:55;;;;;;;4.38;2.92;;;;;;;25.81;37.07;92861.09;5079733;28;20036;-54
2021/11/29 07:02:26;;;;;;;2.97;2.20;;;;;;;25.78;37.06;92866.25;5071826;28;20189;-54
2021/11/29 07:04:53;;;;;;;3.92;2.45;;;;;;;25.77;37.30;92864.81;5064803;28;20037;-52
2021/11/29 07:07:18;;;;;;;3.45;2.28;;;;;;;25.74;37.21;92872.19;5066436;28;20536;-51
2021/11/29 07:09:44;;;;;;;3.72;2.53;;;;;;;25.79;37.18;92862.25;5054834;28;20029;-52
2021/11/29 07:12:09;;;;;;;3.05;2.08;;;;;;;25.85;37.21;92872.31;5063041;28;20032;-55
2021/11/29 07:14:35;;;;;;;3.38;2.30;;;;;;;25.87;37.41;92886.13;5064614;28;20052;-53
2021/11/29 07:17:01;;;;;;;2.92;2.30;;;;;;;25.87;37.15;92875.19;5065600;28;20029;-55
2021/11/29 07:19:26;;;;;;;3.00;2.10;;;;;;;25.83;37.20;92863.97;5066427;28;20091;-55
2021/11/29 07:21:53;;;;;;;3.50;2.35;;;;;;;25.85;37.11;92872.31;5066195;28;20039;-54
2021/11/29 07:24:18;;;;;;;4.15;2.42;;;;;;;25.97;37.41;92897.78;5064005;28;20028;-56
2021/11/29 07:26:45;;;;;;;3.75;2.30;;;;;;;26.05;37.14;92895.63;5052084;28;20110;-53
2021/11/29 07:29:12;;;;;;;3.45;2.28;;;;;;;25.94;37.08;92863.38;5045436;28;20025;-54
2021/11/29 07:31:39;;;;;;;3.17;2.08;;;;;;;26.08;36.95;92878.03;5046306;28;20031;-52
2021/11/29 07:34:04;;;;;;;5.05;2.20;;;;;;;26.11;36.86;92882.34;5046777;28;20025;-54
2021/11/29 07:36:30;;;;;;;3.15;2.03;;;;;;;26.13;36.83;92863.34;5062058;28;20461;-54
2021/11/29 07:38:55;;;;;;;4.78;2.28;;;;;;;26.03;37.09;92881.78;5064515;28;20460;-55
2021/11/29 07:41:21;;;;;;;3.13;2.22;;;;;;;26.02;36.99;92874.91;5045937;28;20029;-54
2021/11/29 07:43:47;;;;;;;2.78;2.00;;;;;;;25.98;37.15;92873.91;5051253;28;20068;-55
2021/11/29 07:46:12;;;;;;;3.05;2.25;;;;;;;25.76;37.26;92877.06;5047830;28;20418;-55
2021/11/29 07:48:38;;;;;;;3.55;2.22;;;;;;;25.81;37.55;92888.44;5048450;28;20417;-55
2021/11/29 07:51:03;;;;;;;3.53;2.33;;;;;;;25.85;37.34;92905.13;5048624;28;20040;-54
2021/11/29 07:53:29;;;;;;;3.17;2.10;;;;;;;25.75;37.34;92927.56;5048647;28;20491;-55
2021/11/29 07:55:54;;;;;;;3.35;2.22;;;;;;;25.76;37.66;92901.69;5053080;28;20044;-55
2021/11/29 07:58:21;;;;;;;2.78;1.90;;;;;;;25.74;37.49;92909.72;5065179;28;20107;-55
2021/11/29 08:00:47;;;;;;;3.22;2.20;;;;;;;25.69;37.53;92921.66;5045364;28;20040;-55
2021/11/29 08:03:12;;;;;;;3.08;2.15;;;;;;;25.59;37.65;92904.50;5045005;28;20040;-54
2021/11/29 08:05:37;;;;;;;2.80;2.10;;;;;;;25.50;37.83;92903.22;5045478;28;20033;-55
2021/11/29 08:08:04;;;;;;;4.00;2.13;;;;;;;25.43;37.88;92903.34;5049518;28;20036;-55
2021/11/29 08:10:30;;;;;;;4.05;2.38;;;;;;;25.35;38.04;92897.25;5035316;28;20117;-55
2021/11/29 08:12:55;;;;;;;3.95;2.40;;;;;;;25.31;38.43;92892.22;5044829;28;20029;-53
2021/11/29 08:15:21;;;;;;;4.10;2.15;;;;;;;25.29;38.45;92887.91;5044590;28;20047;-55
2021/11/29 08:17:46;;;;;;;2.85;1.92;;;;;;;25.22;38.59;92886.75;5044570;28;20498;-55
2021/11/29 08:20:13;;;;;;;3.33;2.20;;;;;;;24.99;38.48;92905.53;5045504;28;20443;-55
2021/11/29 08:22:38;;;;;;;3.38;1.85;;;;;;;25.06;38.59;92947.66;5046493;28;20064;-54
2021/11/29 08:25:04;;;;;;;4.13;2.45;;;;;;;25.03;38.96;92926.97;5044512;28;20025;-55
2021/11/29 08:27:32;;;;;;;3.22;2.05;;;;;;;24.93;38.92;92935.09;5046113;28;20021;-55
2021/11/29 08:29:58;;;;;;;3.15;2.05;;;;;;;24.93;39.22;93010.81;5045854;28;20033;-54
2021/11/29 08:32:24;;;;;;;2.53;1.90;;;;;;;24.89;38.78;93076.75;5047316;28;20863;-55
2021/11/29 08:34:49;;;;;;;2.90;1.90;;;;;;;24.84;39.13;93091.41;5047241;28;20024;-55
2021/11/29 08:37:15;;;;;;;3.03;2.13;;;;;;;24.79;39.17;93093.66;5044901;28;20118;-55
2021/11/29 08:39:40;;;;;;;3.60;2.00;;;;;;;24.80;39.05;93116.91;5044861;28;20021;-54
2021/11/29 08:42:06;;;;;;;3.25;2.00;;;;;;;24.63;39.17;93101.28;5044785;28;20553;-55
2021/11/29 08:44:31;;;;;;;3.10;2.00;;;;;;;24.61;39.36;93116.78;5048478;28;20439;-55
2021/11/29 08:46:57;;;;;;;3.38;2.00;;;;;;;24.50;39.34;93109.09;5046060;28;20064;-53
2021/11/29 08:49:23;;;;;;;3.70;1.70;;;;;;;24.62;39.42;93137.31;5046984;28;20486;-55
2021/11/29 08:51:48;;;;;;;3.58;1.60;;;;;;;24.59;39.36;93144.66;5059037;28;20049;-54
2021/11/29 08:54:14;;;;;;;2.78;1.98;;;;;;;24.54;39.07;93144.88;5048315;28;20021;-54
2021/11/29 08:56:40;;;;;;;2.33;1.55;;;;;;;24.53;39.36;93154.38;5059475;28;20029;-53
2021/11/29 08:59:05;;;;;;;2.80;1.90;;;;;;;24.50;39.57;93144.56;5044980;28;20418;-53
2021/11/29 09:01:31;;;;;;;2.50;1.83;;;;;;;24.49;39.20;93143.13;5046056;28;20046;-53
2021/11/29 09:03:56;;;;;;;3.38;2.17;;;;;;;24.43;39.62;93143.34;5052728;28;20036;-53
2021/11/29 09:06:22;;;;;;;3.53;1.88;;;;;;;24.44;39.88;93144.09;5059400;28;20028;-54
2021/11/29 09:08:47;;;;;;;2.75;1.70;;;;;;;24.40;39.82;93162.84;5045682;28;20037;-54
2021/11/29 09:11:13;;;;;;;2.30;1.67;;;;;;;24.37;39.38;93174.88;5047551;28;20041;-53
2021/11/29 09:13:40;;;;;;;2.60;1.92;;;;;;;24.37;39.95;93185.78;5049287;28;20032;-54
2021/11/29 09:16:06;;;;;;;2.88;1.90;;;;;;;24.32;39.95;93180.53;5064750;28;20621;-53
2021/11/29 09:18:31;;;;;;;2.97;1.70;;;;;;;24.30;39.41;93169.47;5064548;28;20120;-53
2021/11/29 09:20:58;;;;;;;2.70;1.80;;;;;;;24.28;39.54;93178.22;5057115;28;20100;-54
2021/11/29 09:23:24;;;;;;;2.97;1.73;;;;;;;24.25;39.54;93184.78;5044661;28;20090;-53
2021/11/29 09:25:50;;;;;;;2.70;1.60;;;;;;;24.22;39.59;93199.53;5045754;28;20115;-54
2021/11/29 09:28:15;;;;;;;3.55;1.70;;;;;;;24.16;39.68;93193.59;5045583;28;20470;-54
2021/11/29 09:30:41;;;;;;;2.47;1.70;;;;;;;24.17;40.17;93189.59;5043540;28;20112;-53
2021/11/29 09:33:07;;;;;;;2.83;1.75;;;;;;;24.15;39.95;93181.22;5044106;28;20072;-54
2021/11/29 09:35:32;;;;;;;2.38;1.55;;;;;;;24.14;39.79;93168.13;5044191;28;20461;-53
2021/11/29 09:37:58;;;;;;;2.75;1.40;;;;;;;24.06;39.74;93157.28;5044049;28;20410;-52
2021/11/29 09:40:29;;;;;;;3.47;1.60;;;;;;;24.10;39.73;93174.00;5075564;28;20017;-53
2021/11/29 09:42:54;;;;;;;3.55;1.75;;;;;;;24.09;40.10;93175.25;5045532;28;20107;-54
2021/11/29 09:45:21;;;;;;;2.13;1.50;;;;;;;24.07;40.08;93186.03;5059204;28;20479;-54
2021/11/29 09:47:46;;;;;;;2.65;1.60;;;;;;;24.13;39.82;93178.34;5049151;28;20047;-53
2021/11/29 09:50:12;;;;;;;2.28;1.58;;;;;;;24.12;40.31;93174.16;5046557;28;20045;-53
2021/11/29 09:52:38;;;;;;;1.70;1.30;;;;;;;24.14;40.24;93162.69;5050353;28;20068;-53
2021/11/29 09:55:04;;;;;;;3.03;1.73;;;;;;;24.08;39.88;93176.56;5047628;28;20068;-53
2021/11/29 09:57:29;;;;;;;1.95;1.20;;;;;;;24.02;39.90;93167.16;5046143;28;20029;-53
2021/11/29 09:59:55;;;;;;;2.28;1.30;;;;;;;24.05;40.03;93182.38;5047765;28;20036;-53
2021/11/29 10:02:20;;;;;;;2.63;1.65;;;;;;;23.99;40.31;93171.72;5047177;28;20020;-53
2021/11/29 10:04:47;;;;;;;2.22;1.40;;;;;;;24.05;40.38;93177.69;5060264;28;20600;-53
2021/11/29 10:07:32;;;;;;;2.75;1.50;;;;;;;24.07;40.12;93166.94;5057228;28;20028;-52
2021/11/29 10:10:24;;;;;;;2.38;1.42;;;;;;;24.10;40.42;93174.00;5050504;28;20501;-55
2021/11/29 10:12:52;;;;;;;3.13;1.30;;;;;;;24.11;40.04;93175.44;5045170;28;20061;-53
2021/11/29 10:15:33;;;;;;;2.33;1.60;;;;;;;24.13;40.39;93174.88;5045163;28;20040;-55
2021/11/29 10:18:25;;;;;;;3.45;1.38;;;;;;;24.13;40.48;93183.78;5063943;28;20457;-54
2021/11/29 10:20:51;;;;;;;2.42;1.50;;;;;;;24.22;40.62;93185.91;5041965;28;20095;-53
2021/11/29 10:23:25;;;;;;;5.85;1.48;;;;;;;24.25;40.60;93162.97;5058611;28;20041;-55
2021/11/29 10:25:51;;;;;;;2.22;1.45;;;;;;;24.36;40.63;93155.06;5064306;28;20033;-53
2021/11/29 10:28:29;;;;;;;2.40;1.40;;;;;;;24.50;40.40;93158.94;5064811;28;20059;-56
2021/11/29 10:31:19;;;;;;;2.95;1.30;;;;;;;24.55;40.32;93168.88;5064742;28;20039;-53
2021/11/29 10:33:55;;;;;;;3.05;1.20;;;;;;;24.64;39.86;93164.81;5064773;28;20669;-54
2021/11/29 10:36:21;;;;;;;2.50;1.10;;;;;;;24.76;40.19;93154.84;5063530;28;20031;-55
2021/11/29 10:38:51;;;;;;;3.58;1.42;;;;;;;24.84;39.67;93150.72;5067053;28;20025;-54
2021/11/29 10:41:29;;;;;;;2.40;1.52;;;;;;;24.90;39.50;93143.75;5063947;28;20028;-55
2021/11/29 10:43:54;;;;;;;2.75;1.38;;;;;;;24.96;39.54;93146.97;5065796;28;20037;-53
2021/11/29 10:46:28;;;;;;;2.15;1.15;;;;;;;24.89;39.33;93125.91;5067327;28;20031;-52
2021/11/29 10:48:55;;;;;;;2.70;1.42;;;;;;;25.08;39.36;93142.47;5066541;28;20111;-55
2021/11/29 10:51:21;;;;;;;2.08;1.10;;;;;;;25.15;39.07;93141.63;5066704;28;20057;-54
2021/11/29 10:54:01;;;;;;;2.13;1.50;;;;;;;25.26;39.05;93141.16;5061390;28;20036;-53
2021/11/29 10:56:28;;;;;;;2.90;1.40;;;;;;;25.34;39.02;93144.50;5066355;28;20034;-55
2021/11/29 10:58:55;;;;;;;2.05;1.40;;;;;;;25.38;39.07;93145.53;5066797;28;20104;-55
2021/11/29 11:01:50;;;;;;;2.08;1.45;;;;;;;25.42;38.44;93147.84;5064301;28;20028;-52
2021/11/29 11:04:32;;;;;;;2.63;1.25;;;;;;;25.51;38.88;93160.84;5065823;28;20028;-54
2021/11/29 11:07:05;;;;;;;5.75;1.35;;;;;;;25.60;38.76;93152.69;5064734;28;20040;-54
2021/11/29 11:09:39;;;;;;;3.55;1.40;;;;;;;25.67;38.50;93148.44;5065976;28;20017;-56
2021/11/29 11:12:09;;;;;;;3.20;1.23;;;;;;;25.71;38.81;93151.47;5050447;28;20044;-53
2021/11/29 11:14:34;;;;;;;;;;;;;;;25.79;38.17;93161.72;5059987;28;20179;-55
2021/11/29 11:17:10;;;;;;;2.72;1.25;;;;;;;25.86;38.29;93160.91;5066216;28;20428;-56
2021/11/29 11:19:45;;;;;;;1.77;0.98;;;;;;;25.90;38.23;93153.00;5065281;28;20048;-54